»·PEaware :: SWA2182 KSAN-KLAS

SWA2182 :: KSAN-KLAS

FLIGHT INFORMATION

Flight Status: Arrived
Operator:
Southwest Airlines
More flights by this operator :: More flights under this callsign
Pilot: Alfredo R. (12181)
Aircraft: BOEING 737-300
(B733)
More flights by this aircraft type
Origin: KSAN San Diego Intl-Lindbergh
United States
Destination: KLAS McCarran Intl
United States
More flights between these airports :: More routes between these airports
Route: PADRZ2 CHKNN SEBBY YELAH MISEN KEPEC6
File this flight plan on PilotEdge
Remarks:
Altitude:
(Current/Filed)
29,000ft
Speed:
(Current/Filed)
425kts
Departed: 10-Jan-19 05:37 PM
Arrived: 10-Jan-19 06:38 PM
Distance/Time
Traveled:
225nm/1:00
Distance/Time
To Go:
Arrived

Flight Plot

Page will automatically refresh every two minutes.

Flight plan parsing failed; only flown route is shown


Map Options




Map Legend


Flown Route
Filed Route
Departure Airport
Arrival Airport
Navaid (VOR, NDB)
Fix

Horizontal Profiles

Position Reports

Time Latitude Longitude Heading Altitude Ground
Speed
10-Jan-19 17:07 32.731844 -117.195885 247 20ft 0kts
10-Jan-19 17:08 32.731844 -117.195885 247 20ft 0kts
10-Jan-19 17:09 32.731844 -117.195885 247 20ft 0kts
10-Jan-19 17:10 32.731844 -117.195885 247 20ft 0kts
10-Jan-19 17:11 32.731844 -117.195885 247 20ft 0kts
10-Jan-19 17:12 32.731844 -117.195885 247 20ft 0kts
10-Jan-19 17:13 32.731844 -117.195885 247 20ft 0kts
10-Jan-19 17:14 32.731844 -117.195885 247 20ft 0kts
10-Jan-19 17:15 32.731844 -117.195885 247 20ft 0kts
10-Jan-19 17:16 32.731844 -117.195885 247 20ft 0kts
10-Jan-19 17:17 32.731854 -117.195859 247 20ft 2kts
10-Jan-19 17:18 32.732032 -117.195291 249 20ft 2kts
10-Jan-19 17:19 32.731812 -117.195013 347 20ft 0kts
10-Jan-19 17:20 32.733003 -117.194335 28 20ft 3kts
10-Jan-19 17:21 32.733075 -117.194287 28 20ft 0kts
10-Jan-19 17:22 32.733075 -117.194287 28 20ft 0kts
10-Jan-19 17:23 32.733075 -117.194287 28 20ft 0kts
10-Jan-19 17:24 32.733075 -117.194287 28 20ft 0kts
10-Jan-19 17:25 32.733177 -117.194214 34 20ft 2kts
10-Jan-19 17:26 32.733122 -117.192160 106 20ft 11kts
10-Jan-19 17:27 32.731943 -117.187288 105 17ft 17kts
10-Jan-19 17:28 32.730508 -117.181339 106 17ft 20kts
10-Jan-19 17:29 32.729475 -117.176922 86 22ft 6kts
10-Jan-19 17:30 32.729518 -117.176682 73 22ft 0kts
10-Jan-19 17:31 32.729518 -117.176682 73 22ft 0kts
10-Jan-19 17:32 32.729518 -117.176682 73 22ft 0kts
10-Jan-19 17:33 32.729518 -117.176682 73 22ft 0kts
10-Jan-19 17:34 32.729619 -117.176303 71 23ft 4kts
10-Jan-19 17:35 32.730789 -117.178212 286 22ft 21kts
10-Jan-19 17:36 32.735938 -117.199492 287 24ft 160kts
10-Jan-19 17:37 32.759072 -117.249474 309 2258ft 189kts
10-Jan-19 17:38 32.794115 -117.309382 304 3531ft 253kts
10-Jan-19 17:39 32.836786 -117.376062 307 6717ft 261kts
10-Jan-19 17:40 32.881625 -117.445514 307 9531ft 273kts
10-Jan-19 17:41 32.926169 -117.514654 307 10679ft 331kts
10-Jan-19 17:42 32.982640 -117.602815 307 13443ft 341kts
10-Jan-19 17:43 33.040548 -117.693348 307 14953ft 347kts
10-Jan-19 17:44 33.107517 -117.774246 319 15853ft 353kts
10-Jan-19 17:45 33.181912 -117.849601 319 18223ft 360kts
10-Jan-19 17:46 33.259004 -117.925295 320 20463ft 365kts
10-Jan-19 17:47 33.337516 -118.001920 320 22478ft 370kts
10-Jan-19 17:48 33.417187 -118.079855 320 23186ft 374kts
10-Jan-19 17:49 33.496799 -118.157925 320 23167ft 373kts
10-Jan-19 17:50 33.576667 -118.235324 326 24458ft 379kts
10-Jan-19 17:51 33.671778 -118.288922 334 25716ft 388kts
10-Jan-19 17:52 33.773157 -118.316833 18 26822ft 407kts
10-Jan-19 17:53 33.838893 -118.205957 52 27919ft 434kts
10-Jan-19 17:54 33.905122 -118.089906 48 29181ft 417kts
10-Jan-19 17:55 33.970892 -117.978783 48 29159ft 412kts
10-Jan-19 17:56 34.036753 -117.867271 48 29166ft 413kts
10-Jan-19 17:57 34.103542 -117.756419 44 29160ft 410kts
10-Jan-19 17:58 34.176200 -117.650862 44 29167ft 413kts
10-Jan-19 17:59 34.248733 -117.544758 44 29160ft 412kts
10-Jan-19 18:00 34.321198 -117.438396 43 29155ft 412kts
10-Jan-19 18:01 34.393453 -117.331951 44 29157ft 413kts
10-Jan-19 18:02 34.465792 -117.224912 44 29176ft 415kts
10-Jan-19 18:03 34.538760 -117.116809 44 29192ft 418kts
10-Jan-19 18:04 34.611360 -117.008983 44 29171ft 418kts
10-Jan-19 18:05 34.683821 -116.900965 44 29169ft 417kts
10-Jan-19 18:06 34.755331 -116.794073 44 28842ft 417kts
10-Jan-19 18:07 34.826925 -116.686781 44 27357ft 420kts
10-Jan-19 18:08 34.908277 -116.591872 31 25861ft 395kts
10-Jan-19 18:09 34.991669 -116.511533 31 24369ft 385kts
10-Jan-19 18:10 35.074192 -116.431386 31 24174ft 384kts
10-Jan-19 18:11 35.151646 -116.342662 39 24174ft 390kts
10-Jan-19 18:12 35.226396 -116.248574 39 24185ft 390kts
10-Jan-19 18:13 35.300117 -116.155957 38 22825ft 376kts
10-Jan-19 18:14 35.371073 -116.066655 38 21043ft 365kts
10-Jan-19 18:15 35.440182 -115.979412 39 19263ft 356kts
10-Jan-19 18:16 35.507149 -115.894662 39 17491ft 347kts
10-Jan-19 18:17 35.573043 -115.811056 40 15712ft 341kts
10-Jan-19 18:18 35.637749 -115.728754 42 13927ft 336kts
10-Jan-19 18:19 35.699442 -115.649644 42 13038ft 297kts
10-Jan-19 18:20 35.758813 -115.579711 19 13021ft 291kts
10-Jan-19 18:21 35.837374 -115.571073 0 13030ft 288kts
10-Jan-19 18:22 35.916738 -115.566633 0 13028ft 288kts
10-Jan-19 18:23 35.982393 -115.528443 63 12656ft 280kts
10-Jan-19 18:25 36.010219 -115.440923 65 11765ft 274kts
10-Jan-19 18:26 36.029482 -115.353168 92 10875ft 275kts
10-Jan-19 18:27 36.022812 -115.262743 92 9951ft 261kts
10-Jan-19 18:28 36.016842 -115.179523 92 9046ft 244kts
10-Jan-19 18:29 36.011289 -115.098094 92 8160ft 240kts
10-Jan-19 18:30 36.006436 -115.019069 91 7131ft 232kts
10-Jan-19 18:31 36.001506 -114.945396 94 6274ft 215kts
10-Jan-19 18:32 36.009352 -114.880839 27 5403ft 203kts
10-Jan-19 18:33 36.047956 -114.911296 302 5002ft 194kts
10-Jan-19 18:34 36.070381 -114.969615 276 4247ft 193kts
10-Jan-19 18:35 36.073227 -115.029910 273 3779ft 167kts
10-Jan-19 18:36 36.073815 -115.087004 271 2696ft 166kts
10-Jan-19 18:37 36.073666 -115.143396 269 2094ft 141kts
10-Jan-19 18:38 36.074444 -115.161225 359 2162ft 5kts
10-Jan-19 18:39 36.074519 -115.161224 359 2162ft 0kts
10-Jan-19 18:40 36.076270 -115.161245 359 2156ft 14kts
10-Jan-19 18:41 36.078020 -115.158558 91 2144ft 17kts
10-Jan-19 18:41 36.078019 -115.153681 90 2125ft 20kts
10-Jan-19 18:43 36.078220 -115.148238 21 2104ft 8kts
10-Jan-19 18:44 36.079799 -115.147349 56 2097ft 3kts
10-Jan-19 18:45 36.079938 -115.147092 56 2096ft 0kts

Navigation Log

Ident Type
Flight plan parsing failed, navigation log unavailable